createdAt,value
2018-03-26T00:00:41.049Z,33.30
2018-03-26T00:02:34.109Z,33.50
2018-03-26T00:03:33.938Z,34.20
2018-03-26T00:05:27.000Z,34.70
2018-03-26T00:06:26.789Z,35.10
2018-03-26T00:08:19.844Z,32.70
2018-03-26T00:09:19.658Z,33.70
2018-03-26T00:11:12.775Z,32.50
2018-03-26T00:12:12.505Z,34.20
2018-03-26T00:14:05.907Z,33.10
2018-03-26T00:15:05.880Z,33.80
2018-03-26T00:16:59.300Z,34.70
2018-03-26T00:17:59.238Z,34.30
2018-03-26T00:19:52.312Z,33.90
2018-03-26T00:20:52.120Z,34.00
2018-03-26T00:22:45.618Z,33.50
2018-03-26T00:23:45.470Z,35.80
2018-03-26T00:25:38.847Z,34.30
2018-03-26T00:26:38.830Z,34.00
2018-03-26T00:28:32.224Z,34.80
2018-03-26T00:29:32.171Z,35.10
2018-03-26T00:31:25.087Z,35.30
2018-03-26T00:32:25.063Z,34.80
2018-03-26T00:34:18.428Z,33.50
2018-03-26T00:35:18.399Z,33.40
2018-03-26T00:37:11.825Z,34.60
2018-03-26T00:38:11.780Z,34.90
2018-03-26T00:40:05.193Z,32.90
2018-03-26T00:41:05.144Z,33.80
2018-03-26T00:42:59.536Z,34.10
2018-03-26T00:43:59.507Z,34.60
2018-03-26T00:45:52.449Z,34.80
2018-03-26T00:46:52.369Z,34.30
2018-03-26T00:48:45.256Z,34.90
2018-03-26T00:49:45.809Z,35.00
2018-03-26T00:51:38.231Z,34.10
2018-03-26T00:52:38.100Z,35.00
2018-03-26T00:54:31.607Z,35.10
2018-03-26T00:55:31.439Z,35.70
2018-03-26T00:57:24.363Z,34.20
2018-03-26T00:58:24.325Z,34.10
2018-03-26T01:00:17.838Z,34.70
2018-03-26T01:01:17.672Z,34.00
2018-03-26T01:03:10.596Z,34.70
2018-03-26T01:04:10.523Z,34.40
2018-03-26T01:06:03.926Z,34.80
2018-03-26T01:07:03.885Z,34.10
2018-03-26T01:08:56.785Z,35.60
2018-03-26T01:09:56.743Z,34.50
2018-03-26T01:11:49.635Z,35.30
2018-03-26T01:12:49.605Z,33.80
2018-03-26T01:14:42.517Z,33.90
2018-03-26T01:15:43.033Z,34.40
2018-03-26T01:17:35.459Z,35.50
2018-03-26T01:18:35.327Z,36.10
2018-03-26T01:20:28.228Z,35.50
2018-03-26T01:21:28.763Z,35.80
2018-03-26T01:23:21.600Z,34.50
2018-03-26T01:24:21.572Z,35.20
2018-03-26T01:26:15.044Z,36.30
2018-03-26T01:27:14.928Z,35.40
2018-03-26T01:29:08.307Z,34.90
2018-03-26T01:30:08.273Z,34.20
2018-03-26T01:32:01.170Z,34.60
2018-03-26T01:33:01.158Z,35.80
2018-03-26T01:34:54.046Z,34.90
2018-03-26T01:35:54.021Z,33.80
2018-03-26T01:37:47.667Z,35.30
2018-03-26T01:38:47.383Z,34.60
2018-03-26T01:40:40.429Z,36.00
2018-03-26T01:41:40.233Z,35.30
2018-03-26T01:43:33.660Z,35.20
2018-03-26T01:44:33.619Z,35.90
2018-03-26T01:46:27.205Z,35.50
2018-03-26T01:47:26.959Z,36.20
2018-03-26T01:49:20.358Z,36.10
2018-03-26T01:50:20.888Z,36.40
2018-03-26T01:52:13.704Z,35.90
2018-03-26T01:53:13.674Z,36.10
2018-03-26T01:55:07.145Z,36.50
2018-03-26T01:56:07.024Z,37.40
2018-03-26T01:58:00.415Z,38.20
2018-03-26T01:59:00.389Z,36.70
2018-03-26T02:00:53.274Z,37.00
2018-03-26T02:01:53.237Z,36.60
2018-03-26T02:03:46.188Z,36.90
2018-03-26T02:04:46.161Z,37.00
2018-03-26T02:06:40.065Z,38.40
2018-03-26T02:07:38.961Z,39.20
2018-03-26T02:09:31.867Z,38.30
2018-03-26T02:10:31.831Z,38.50
2018-03-26T02:12:24.825Z,39.20
2018-03-26T02:13:24.832Z,38.70
2018-03-26T02:15:18.258Z,37.60
2018-03-26T02:16:18.146Z,37.60
2018-03-26T02:18:11.041Z,37.30
2018-03-26T02:19:11.009Z,38.50
2018-03-26T02:21:03.916Z,38.40
2018-03-26T02:22:03.876Z,37.70
2018-03-26T02:23:57.253Z,38.90
2018-03-26T02:24:57.219Z,37.60
2018-03-26T02:26:50.156Z,38.60
2018-03-26T02:27:50.076Z,38.30
2018-03-26T02:29:42.974Z,38.20
2018-03-26T02:30:42.944Z,38.80
2018-03-26T02:32:35.849Z,38.10
2018-03-26T02:33:35.806Z,39.10
2018-03-26T02:35:28.709Z,38.20
2018-03-26T02:36:28.675Z,37.70
2018-03-26T02:38:21.575Z,38.70
2018-03-26T02:39:21.534Z,37.00
2018-03-26T02:41:14.437Z,38.10
2018-03-26T02:42:14.392Z,37.80
2018-03-26T02:44:07.863Z,39.10
2018-03-26T02:45:07.766Z,38.70
2018-03-26T02:47:00.769Z,38.50
2018-03-26T02:48:00.634Z,39.70
2018-03-26T02:49:54.006Z,40.30
2018-03-26T02:50:53.970Z,40.90
2018-03-26T02:52:46.856Z,39.80
2018-03-26T02:53:46.839Z,39.20
2018-03-26T02:55:39.887Z,40.50
2018-03-26T02:56:39.708Z,39.60
2018-03-26T02:58:32.589Z,38.40
2018-03-26T02:59:32.548Z,39.70
2018-03-26T03:01:25.439Z,40.90
2018-03-26T03:02:25.429Z,41.70
2018-03-26T03:04:18.797Z,39.90
2018-03-26T03:05:18.765Z,40.20
2018-03-26T03:07:11.669Z,42.40
2018-03-26T03:08:12.186Z,40.80
2018-03-26T03:10:05.042Z,40.80
2018-03-26T03:11:04.991Z,41.30
2018-03-26T03:12:58.515Z,42.50
2018-03-26T03:13:58.348Z,42.30
2018-03-26T03:15:51.743Z,42.30
2018-03-26T03:16:51.702Z,43.00
2018-03-26T03:18:45.081Z,41.50
2018-03-26T03:19:45.067Z,43.00
2018-03-26T03:21:37.966Z,44.60
2018-03-26T03:22:37.929Z,44.40
2018-03-26T03:24:31.084Z,44.30
2018-03-26T03:25:30.788Z,46.00
2018-03-26T03:27:24.157Z,45.40
2018-03-26T03:28:24.124Z,45.40
2018-03-26T03:30:17.143Z,45.70
2018-03-26T03:31:16.996Z,45.50
2018-03-26T03:33:10.123Z,46.00
2018-03-26T03:34:09.856Z,46.90
2018-03-26T03:36:02.779Z,47.40
2018-03-26T03:37:02.719Z,46.10
2018-03-26T03:38:55.667Z,47.20
2018-03-26T03:39:55.575Z,47.80
2018-03-26T03:41:49.098Z,49.60
2018-03-26T03:42:48.937Z,49.10
2018-03-26T03:44:42.463Z,49.50
2018-03-26T03:45:42.272Z,49.50
2018-03-26T03:47:35.248Z,49.80
2018-03-26T03:48:35.164Z,50.80
2018-03-26T03:50:28.043Z,51.30
2018-03-26T03:51:28.019Z,51.80
2018-03-26T03:53:21.191Z,51.60
2018-03-26T03:54:21.150Z,52.30
2018-03-26T03:56:14.624Z,52.00
2018-03-26T03:57:14.017Z,52.20
2018-03-26T03:59:06.938Z,50.60
2018-03-26T04:00:06.910Z,51.30
2018-03-26T04:02:00.389Z,51.80
2018-03-26T04:03:00.238Z,52.00
2018-03-26T04:04:53.140Z,53.50
2018-03-26T04:05:53.110Z,52.90
2018-03-26T04:07:46.569Z,54.10
2018-03-26T04:08:46.480Z,54.50
2018-03-26T04:10:39.968Z,54.80
2018-03-26T04:11:39.800Z,55.30
2018-03-26T04:13:32.695Z,55.00
2018-03-26T04:14:32.653Z,54.70
2018-03-26T04:16:26.045Z,54.20
2018-03-26T04:17:26.584Z,53.60
2018-03-26T04:19:19.420Z,56.60
2018-03-26T04:20:19.948Z,56.40
2018-03-26T04:22:12.893Z,58.10
2018-03-26T04:23:12.737Z,58.70
2018-03-26T04:25:05.807Z,58.00
2018-03-26T04:26:05.581Z,58.50
2018-03-26T04:27:58.467Z,60.90
2018-03-26T04:28:58.442Z,61.60
2018-03-26T04:30:54.247Z,60.70
2018-03-26T04:31:51.861Z,60.40
2018-03-26T04:33:45.282Z,59.10
2018-03-26T04:34:44.786Z,62.50
2018-03-26T04:36:37.888Z,61.80
2018-03-26T04:37:37.649Z,61.20
2018-03-26T04:39:30.698Z,60.20
2018-03-26T04:40:30.497Z,60.80
2018-03-26T04:42:23.583Z,61.70
2018-03-26T04:43:23.363Z,60.40
2018-03-26T04:45:16.766Z,61.50
2018-03-26T04:46:16.721Z,61.00
2018-03-26T04:48:09.951Z,62.50
2018-03-26T04:49:09.615Z,61.20
2018-03-26T04:51:03.867Z,62.10
2018-03-26T04:52:02.924Z,61.20
2018-03-26T04:53:56.686Z,61.80
2018-03-26T04:54:56.340Z,61.50
2018-03-26T04:56:50.126Z,62.50
2018-03-26T04:57:49.776Z,62.70
2018-03-26T04:59:44.071Z,62.50
2018-03-26T05:00:43.150Z,64.70
2018-03-26T05:02:38.448Z,64.50
2018-03-26T05:03:36.394Z,61.70
2018-03-26T05:05:29.490Z,63.80
2018-03-26T05:06:29.268Z,64.10
2018-03-26T05:08:23.178Z,63.70
2018-03-26T05:09:22.711Z,64.10
2018-03-26T05:11:17.545Z,63.20
2018-03-26T05:12:16.017Z,66.20
2018-03-26T05:14:09.705Z,62.60
2018-03-26T05:15:09.312Z,62.30
2018-03-26T05:17:03.136Z,64.00
2018-03-26T05:18:02.940Z,62.80
2018-03-26T05:19:58.739Z,63.10
2018-03-26T05:20:56.130Z,64.10
2018-03-26T05:22:50.467Z,64.30
2018-03-26T05:23:49.549Z,62.20
2018-03-26T05:25:43.207Z,61.00
2018-03-26T05:26:42.829Z,61.10
2018-03-26T05:28:36.609Z,61.60
2018-03-26T05:29:36.230Z,58.20
2018-03-26T05:31:29.627Z,62.60
2018-03-26T05:32:29.039Z,59.30
2018-03-26T05:34:23.021Z,61.10
2018-03-26T05:35:22.425Z,59.60
2018-03-26T05:37:15.836Z,60.90
2018-03-26T05:38:15.844Z,60.00
2018-03-26T05:40:10.218Z,59.30
2018-03-26T05:41:09.147Z,59.40
2018-03-26T05:43:02.326Z,55.60
2018-03-26T05:44:02.574Z,55.60
2018-03-26T05:45:55.735Z,53.90
2018-03-26T05:46:55.416Z,53.40
2018-03-26T05:48:48.836Z,53.00
2018-03-26T05:49:48.765Z,51.60
2018-03-26T05:51:41.851Z,51.00
2018-03-26T05:52:41.694Z,48.50
2018-03-26T05:54:35.056Z,48.70
2018-03-26T05:55:35.588Z,47.90
2018-03-26T05:57:31.013Z,48.00
2018-03-26T05:58:29.826Z,47.50
2018-03-26T06:00:24.249Z,49.20
2018-03-26T06:01:22.914Z,49.00
2018-03-26T06:03:15.731Z,48.00
2018-03-26T06:04:15.764Z,47.60
2018-03-26T06:06:08.593Z,47.70
2018-03-26T06:07:08.588Z,48.00
2018-03-26T06:09:01.460Z,47.80
2018-03-26T06:10:01.439Z,47.90
2018-03-26T06:11:55.767Z,47.20
2018-03-26T06:12:55.351Z,46.80
2018-03-26T06:14:50.225Z,44.50
2018-03-26T06:15:47.864Z,45.10
2018-03-26T06:17:40.789Z,46.00
2018-03-26T06:18:40.531Z,45.80
2018-03-26T06:20:34.915Z,45.40
2018-03-26T06:21:35.226Z,45.10
2018-03-26T06:23:28.507Z,43.50
2018-03-26T06:24:28.257Z,44.00
2018-03-26T06:26:22.504Z,44.20
2018-03-26T06:27:21.137Z,45.00
2018-03-26T06:29:14.305Z,43.40
2018-03-26T06:30:13.978Z,43.00
2018-03-26T06:32:09.325Z,42.90
2018-03-26T06:33:08.628Z,43.30
2018-03-26T06:35:01.618Z,43.90
2018-03-26T06:36:01.223Z,44.20
2018-03-26T06:37:55.318Z,44.70
2018-03-26T06:38:54.721Z,44.50
2018-03-26T06:41:11.638Z,43.80
2018-03-26T06:42:11.682Z,42.60
2018-03-26T06:44:05.774Z,41.40
2018-03-26T06:45:05.236Z,41.70
2018-03-26T06:46:58.686Z,42.70
2018-03-26T06:47:59.108Z,42.20
2018-03-26T06:49:52.057Z,42.70
2018-03-26T06:50:52.499Z,43.40
2018-03-26T06:52:45.060Z,42.10
2018-03-26T06:54:59.292Z,43.10
2018-03-26T06:55:58.390Z,42.80
2018-03-26T06:57:52.430Z,41.80
2018-03-26T06:58:51.906Z,43.50
2018-03-26T07:00:45.869Z,43.00
2018-03-26T07:01:45.324Z,43.00
2018-03-26T07:03:38.633Z,44.80
2018-03-26T07:04:38.594Z,42.60
2018-03-26T07:06:31.413Z,42.40
2018-03-26T07:07:31.820Z,41.90
2018-03-26T07:09:24.902Z,42.40
2018-03-26T07:10:24.452Z,43.50
2018-03-26T07:12:19.272Z,43.00
2018-03-26T07:13:17.908Z,43.30
2018-03-26T07:15:11.660Z,43.70
2018-03-26T07:16:13.823Z,44.00
2018-03-26T07:18:04.674Z,41.70
2018-03-26T07:19:04.546Z,41.70
2018-03-26T07:20:58.379Z,42.10
2018-03-26T07:21:58.344Z,42.80
2018-03-26T07:23:52.323Z,41.90
2018-03-26T07:24:53.267Z,40.90
2018-03-26T07:26:45.009Z,43.90
2018-03-26T07:27:46.104Z,42.60
2018-03-26T07:29:54.767Z,43.00
2018-03-26T07:30:54.403Z,43.20
2018-03-26T07:32:48.679Z,43.50
2018-03-26T07:33:47.773Z,41.20
2018-03-26T07:35:41.681Z,42.80
2018-03-26T07:36:41.151Z,43.30
2018-03-26T07:38:35.952Z,44.10
2018-03-26T07:39:34.891Z,44.00
2018-03-26T07:41:28.275Z,43.60
2018-03-26T07:42:28.304Z,44.30
2018-03-26T07:44:22.671Z,43.30
2018-03-26T07:45:21.696Z,42.20
2018-03-26T07:47:14.976Z,42.10
2018-03-26T07:48:14.958Z,42.10
2018-03-26T07:50:29.746Z,43.90
2018-03-26T07:51:30.212Z,43.90
2018-03-26T07:53:23.202Z,44.40
2018-03-26T07:54:22.737Z,44.70
2018-03-26T07:56:17.278Z,44.20
2018-03-26T07:57:16.369Z,44.60
2018-03-26T07:59:09.749Z,45.80
2018-03-26T08:00:09.409Z,47.10
2018-03-26T08:02:03.131Z,47.10
2018-03-26T08:03:03.364Z,45.50
2018-03-26T08:04:56.646Z,46.00
2018-03-26T08:05:56.275Z,45.60
2018-03-26T08:07:49.649Z,45.80
2018-03-26T08:08:49.592Z,45.10
2018-03-26T08:10:43.099Z,47.00
2018-03-26T08:11:43.041Z,46.90
2018-03-26T08:13:35.878Z,48.20
2018-03-26T08:14:35.548Z,47.40
2018-03-26T08:16:29.229Z,48.10
2018-03-26T08:17:28.804Z,47.80
2018-03-26T08:19:22.113Z,49.50
2018-03-26T08:20:22.069Z,49.60
2018-03-26T08:22:15.039Z,49.30
2018-03-26T08:23:15.532Z,49.10
2018-03-26T08:25:08.391Z,50.00
2018-03-26T08:26:08.025Z,50.40
2018-03-26T08:28:16.609Z,48.40
2018-03-26T08:29:16.123Z,49.30
2018-03-26T08:31:10.063Z,51.00
2018-03-26T08:32:09.516Z,49.20
2018-03-26T08:34:04.004Z,52.80
2018-03-26T08:35:03.033Z,53.10
2018-03-26T08:36:56.844Z,53.10
2018-03-26T08:37:57.314Z,56.90
2018-03-26T08:39:49.941Z,61.60
2018-03-26T08:40:49.695Z,64.70
2018-03-26T08:42:48.278Z,63.80
2018-03-26T08:43:43.709Z,63.00
2018-03-26T08:45:37.457Z,58.50
2018-03-26T08:46:37.178Z,56.40
2018-03-26T08:48:31.358Z,56.20
2018-03-26T08:49:30.500Z,54.20
2018-03-26T08:51:25.226Z,56.40
2018-03-26T08:52:23.788Z,57.20
2018-03-26T08:54:17.600Z,58.20
2018-03-26T08:55:18.061Z,59.20
2018-03-26T08:57:11.444Z,60.00
2018-03-26T08:58:10.651Z,58.40
2018-03-26T09:00:05.457Z,60.70
2018-03-26T09:01:05.834Z,61.30
2018-03-26T09:02:58.793Z,61.80
2018-03-26T09:03:58.392Z,59.80
2018-03-26T09:05:55.179Z,58.50
2018-03-26T09:06:56.056Z,60.40
2018-03-26T09:08:50.661Z,58.90
2018-03-26T09:09:50.153Z,59.00
2018-03-26T09:11:44.463Z,58.30
2018-03-26T09:12:43.896Z,56.20
2018-03-26T09:14:38.874Z,60.00
2018-03-26T09:15:37.886Z,60.60
2018-03-26T09:17:31.800Z,60.50
2018-03-26T09:18:31.627Z,63.50
2018-03-26T09:20:32.292Z,61.90
2018-03-26T09:21:28.535Z,60.30
2018-03-26T09:23:22.999Z,62.90
2018-03-26T09:24:20.590Z,64.80
2018-03-26T09:26:15.368Z,63.70
2018-03-26T09:27:15.624Z,62.30
2018-03-26T09:29:07.991Z,62.20
2018-03-26T09:30:08.334Z,63.40
2018-03-26T09:32:01.671Z,62.80
2018-03-26T09:33:02.115Z,66.30
2018-03-26T09:34:54.641Z,67.90
2018-03-26T09:35:54.642Z,66.10
2018-03-26T09:37:48.996Z,64.70
2018-03-26T09:38:48.952Z,63.40
2018-03-26T09:40:46.929Z,60.90
2018-03-26T09:41:46.764Z,61.10
2018-03-26T09:43:44.797Z,62.40
2018-03-26T09:44:44.768Z,60.40
2018-03-26T09:46:38.073Z,61.50
2018-03-26T09:47:38.077Z,61.10
2018-03-26T09:49:30.942Z,62.50
2018-03-26T09:50:31.488Z,60.20
2018-03-26T09:52:25.346Z,61.10
2018-03-26T09:53:26.845Z,59.10
2018-03-26T09:55:18.842Z,49.20
2018-03-26T09:56:18.299Z,49.30
2018-03-26T09:58:12.029Z,48.80
2018-03-26T09:59:12.020Z,47.50
2018-03-26T10:01:05.106Z,46.10
2018-03-26T10:02:04.597Z,46.20
2018-03-26T10:04:03.028Z,39.30
2018-03-26T10:05:02.933Z,31.80
2018-03-26T10:06:56.427Z,26.60
2018-03-26T10:07:55.763Z,23.80
2018-03-26T10:09:49.127Z,29.40
2018-03-26T10:10:49.129Z,29.70
2018-03-26T10:12:42.488Z,29.20
2018-03-26T10:13:44.624Z,26.10
2018-03-26T10:15:36.473Z,21.80
2018-03-26T10:16:35.415Z,19.60
2018-03-26T10:18:29.227Z,17.70
2018-03-26T10:20:43.894Z,17.50
2018-03-26T10:21:43.170Z,18.20
2018-03-26T10:23:36.968Z,16.30
2018-03-26T10:24:36.933Z,16.00
2018-03-26T10:26:31.942Z,15.30
2018-03-26T10:27:31.353Z,15.70
2018-03-26T10:29:24.684Z,15.30
2018-03-26T10:30:24.675Z,15.70
2018-03-26T10:32:18.100Z,14.20
2018-03-26T10:33:17.693Z,14.20
2018-03-26T10:35:11.590Z,16.90
2018-03-26T10:36:11.065Z,18.20
2018-03-26T10:38:04.552Z,16.40
2018-03-26T10:39:05.374Z,14.00
2018-03-26T10:41:00.939Z,13.50
2018-03-26T10:41:57.459Z,15.50
2018-03-26T10:43:51.211Z,19.50
2018-03-26T10:44:51.145Z,20.40
2018-03-26T10:46:44.173Z,15.50
2018-03-26T10:47:43.741Z,14.80
2018-03-26T10:50:28.171Z,12.90
2018-03-26T10:51:27.746Z,13.60
2018-03-26T10:53:22.215Z,14.20
2018-03-26T10:54:22.186Z,14.80
2018-03-26T10:56:20.753Z,13.90
2018-03-26T10:57:14.258Z,12.50
2018-03-26T10:59:20.822Z,13.40
2018-03-26T11:00:21.605Z,14.90
2018-03-26T11:02:15.118Z,16.50
2018-03-26T11:03:14.181Z,15.70
2018-03-26T11:05:09.342Z,14.90
2018-03-26T11:06:10.073Z,14.80
2018-03-26T11:08:05.313Z,15.20
2018-03-26T11:09:01.528Z,15.80
2018-03-26T11:10:59.497Z,14.30
2018-03-26T11:11:58.236Z,14.60
2018-03-26T11:15:33.057Z,15.50
2018-03-26T11:16:30.529Z,15.40
2018-03-26T11:18:29.114Z,15.40
2018-03-26T11:19:27.163Z,15.50
2018-03-26T11:21:17.615Z,10.30
2018-03-26T11:22:17.218Z,9.70
2018-03-26T11:24:16.040Z,9.40
2018-03-26T11:25:15.951Z,10.50
2018-03-26T11:27:22.839Z,11.00
2018-03-26T11:28:22.782Z,12.60
2018-03-26T11:30:18.561Z,12.70
2018-03-26T11:31:16.117Z,11.60
2018-03-26T11:33:12.726Z,12.10
2018-03-26T11:34:13.029Z,10.90
2018-03-26T11:36:05.983Z,11.20
2018-03-26T11:37:07.867Z,10.60
2018-03-26T11:38:58.846Z,10.30
2018-03-26T11:39:58.783Z,10.30
2018-03-26T11:41:52.408Z,8.20
2018-03-26T11:42:51.780Z,8.00
2018-03-26T11:44:45.578Z,6.40
2018-03-26T11:45:45.132Z,6.70
2018-03-26T11:47:40.079Z,6.40
2018-03-26T11:48:40.074Z,6.50
2018-03-26T11:50:44.282Z,6.40
2018-03-26T11:51:44.229Z,5.90
2018-03-26T11:53:37.912Z,4.80
2018-03-26T11:54:37.198Z,4.80
2018-03-26T11:56:30.965Z,4.90
2018-03-26T11:57:30.491Z,4.70
2018-03-26T11:59:24.438Z,4.80
2018-03-26T12:00:23.929Z,4.70
2018-03-26T12:02:18.050Z,5.50
2018-03-26T12:03:17.052Z,5.60
2018-03-26T12:05:10.869Z,5.60
2018-03-26T12:06:10.407Z,5.50
2018-03-26T12:08:07.345Z,3.80
2018-03-26T12:09:04.791Z,4.80
2018-03-26T12:10:57.594Z,3.60
2018-03-26T12:11:57.242Z,3.90
2018-03-26T12:13:55.456Z,5.10
2018-03-26T12:14:54.565Z,5.90
2018-03-26T12:16:48.869Z,6.20
2018-03-26T12:17:48.383Z,6.00
2018-03-26T12:19:55.985Z,6.10
2018-03-26T12:20:55.528Z,5.70
2018-03-26T12:22:49.321Z,5.90
2018-03-26T12:23:48.917Z,6.40
2018-03-26T12:25:42.327Z,7.30
2018-03-26T12:26:43.227Z,7.50
2018-03-26T12:28:35.272Z,6.80
2018-03-26T12:29:35.169Z,6.20
2018-03-26T12:31:30.880Z,6.90
2018-03-26T12:32:31.212Z,6.90
2018-03-26T12:34:24.622Z,8.20
2018-03-26T12:35:24.542Z,8.30
2018-03-26T12:37:18.869Z,8.80
2018-03-26T12:38:17.951Z,9.70
2018-03-26T12:40:11.854Z,10.30
2018-03-26T12:41:13.941Z,11.70
2018-03-26T12:43:56.292Z,13.20
2018-03-26T12:44:56.295Z,12.60
2018-03-26T12:46:50.138Z,12.10
2018-03-26T12:47:50.034Z,12.00
2018-03-26T12:49:46.094Z,12.90
2018-03-26T12:50:46.006Z,12.20
2018-03-26T12:52:39.414Z,13.60
2018-03-26T12:53:39.779Z,13.10
2018-03-26T12:55:33.331Z,16.00
2018-03-26T12:56:33.290Z,16.70
2018-03-26T12:58:26.326Z,18.50
2018-03-26T12:59:25.804Z,18.90
2018-03-26T13:01:21.896Z,19.70
2018-03-26T13:02:22.192Z,20.50
2018-03-26T13:04:18.138Z,20.10
2018-03-26T13:05:18.109Z,19.30
2018-03-26T13:07:11.621Z,18.10
2018-03-26T13:08:10.581Z,17.70
2018-03-26T13:10:04.341Z,15.80
2018-03-26T13:11:04.117Z,14.80
2018-03-26T13:12:57.737Z,13.30
2018-03-26T13:13:57.406Z,12.80
2018-03-26T13:15:51.044Z,11.70
2018-03-26T13:16:51.114Z,11.10
2018-03-26T13:18:45.435Z,10.30
2018-03-26T13:19:45.027Z,9.60
2018-03-26T13:21:38.870Z,9.50
2018-03-26T13:22:38.412Z,8.60
2018-03-26T13:24:33.624Z,7.70
2018-03-26T13:25:33.690Z,8.50
2018-03-26T13:27:27.652Z,7.30
2018-03-26T13:28:25.765Z,7.00
2018-03-26T13:30:19.162Z,8.80
2018-03-26T13:31:19.592Z,8.60
2018-03-26T13:33:13.956Z,8.60
2018-03-26T13:34:14.108Z,8.60
2018-03-26T13:36:07.560Z,8.40
2018-03-26T13:37:06.923Z,9.10
2018-03-26T13:39:00.785Z,10.50
2018-03-26T13:40:00.242Z,10.60
2018-03-26T13:41:53.894Z,10.00
2018-03-26T13:42:53.954Z,10.60
2018-03-26T13:44:55.075Z,10.40
2018-03-26T13:45:54.300Z,10.70
2018-03-26T13:47:48.698Z,10.80
2018-03-26T13:50:02.101Z,9.90
2018-03-26T13:51:01.596Z,9.40
2018-03-26T13:52:55.429Z,8.80
2018-03-26T13:53:55.102Z,8.40
2018-03-26T13:55:49.391Z,8.30
2018-03-26T13:56:48.332Z,8.10
2018-03-26T13:58:42.121Z,6.10
2018-03-26T13:59:41.769Z,6.10
2018-03-26T14:01:35.551Z,6.30
2018-03-26T14:02:35.130Z,6.10
2018-03-26T14:04:28.090Z,6.50
2018-03-26T14:05:28.407Z,6.60
2018-03-26T14:07:21.818Z,6.60
2018-03-26T14:08:21.405Z,6.10
2018-03-26T14:10:15.269Z,6.00
2018-03-26T14:11:15.147Z,5.90
2018-03-26T14:13:08.548Z,5.70
2018-03-26T14:14:08.541Z,5.70
2018-03-26T14:16:02.951Z,5.80
2018-03-26T14:17:02.478Z,5.80
2018-03-26T14:18:56.322Z,7.20
2018-03-26T14:19:57.356Z,8.00
2018-03-26T14:21:49.629Z,8.70
2018-03-26T14:22:49.872Z,8.50
2018-03-26T14:24:47.120Z,6.00
2018-03-26T14:25:47.188Z,5.00
2018-03-26T14:27:40.958Z,2.90
2018-03-26T14:28:40.879Z,3.20
2018-03-26T14:30:34.798Z,2.80
2018-03-26T14:31:33.746Z,2.80
2018-03-26T14:33:26.715Z,2.70
2018-03-26T14:34:26.669Z,2.90
2018-03-26T14:36:20.561Z,2.90
2018-03-26T14:37:21.022Z,3.20
2018-03-26T14:39:26.463Z,3.30
2018-03-26T14:40:25.120Z,3.30
2018-03-26T14:42:25.475Z,3.60
2018-03-26T14:43:25.529Z,3.50
2018-03-26T14:45:18.398Z,3.70
2018-03-26T14:46:18.522Z,3.50
2018-03-26T14:48:12.709Z,3.10
2018-03-26T14:49:11.710Z,3.40
2018-03-26T14:51:05.204Z,3.40
2018-03-26T14:52:05.217Z,2.80
2018-03-26T14:54:00.142Z,2.80
2018-03-26T14:54:59.485Z,2.80
2018-03-26T14:56:52.789Z,2.80
2018-03-26T14:57:52.414Z,2.50
2018-03-26T14:59:48.910Z,2.60
2018-03-26T15:00:46.198Z,2.60
2018-03-26T15:02:39.601Z,2.70
2018-03-26T15:03:41.126Z,2.60
2018-03-26T15:05:34.472Z,2.90
2018-03-26T15:06:33.581Z,2.60
2018-03-26T15:08:27.899Z,2.70
2018-03-26T15:09:27.326Z,2.60
2018-03-26T15:11:20.743Z,2.60
2018-03-26T15:12:20.267Z,3.10
2018-03-26T15:14:14.042Z,2.60
2018-03-26T15:15:13.618Z,3.00
2018-03-26T15:17:07.400Z,2.70
2018-03-26T15:18:07.433Z,2.40
2018-03-26T15:20:04.942Z,2.70
2018-03-26T15:21:06.279Z,2.60
2018-03-26T15:22:58.712Z,2.50
2018-03-26T15:23:58.227Z,2.60
2018-03-26T15:25:51.965Z,2.50
2018-03-26T15:26:51.997Z,2.50
2018-03-26T15:28:45.431Z,2.70
2018-03-26T15:29:45.014Z,2.90
2018-03-26T15:31:39.359Z,2.60
2018-03-26T15:32:38.737Z,2.80
2018-03-26T15:34:32.164Z,2.40
2018-03-26T15:35:32.134Z,2.90
2018-03-26T15:37:25.505Z,2.50
2018-03-26T15:38:25.481Z,2.40
2018-03-26T15:40:18.431Z,2.60
2018-03-26T15:41:17.879Z,2.50
2018-03-26T15:43:11.739Z,2.40
2018-03-26T15:44:11.652Z,2.70
2018-03-26T15:46:05.497Z,2.90
2018-03-26T15:47:05.037Z,2.90
2018-03-26T15:49:01.096Z,3.30
2018-03-26T15:49:59.334Z,3.00
2018-03-26T15:51:54.248Z,3.30
2018-03-26T15:52:52.955Z,3.50
2018-03-26T15:54:45.854Z,3.30
2018-03-26T15:56:59.556Z,3.80
2018-03-26T15:57:59.127Z,3.90
2018-03-26T15:59:53.170Z,3.80
2018-03-26T16:00:52.592Z,3.50
2018-03-26T16:02:46.405Z,3.60
2018-03-26T16:03:46.300Z,3.90
2018-03-26T16:05:39.278Z,3.80
2018-03-26T16:06:39.827Z,3.80
2018-03-26T16:08:32.217Z,5.20
2018-03-26T16:09:32.135Z,5.40
2018-03-26T16:11:25.527Z,6.70
2018-03-26T16:12:25.503Z,6.30
2018-03-26T16:14:18.660Z,6.30
2018-03-26T16:16:32.276Z,6.50
2018-03-26T16:17:32.293Z,7.00
2018-03-26T16:19:25.055Z,6.40
2018-03-26T16:20:25.416Z,6.70
2018-03-26T16:22:18.399Z,6.80
2018-03-26T16:23:18.343Z,6.50
2018-03-26T16:25:11.658Z,6.20
2018-03-26T16:26:12.706Z,6.80
2018-03-26T16:28:04.947Z,6.10
2018-03-26T16:29:04.612Z,6.50
2018-03-26T16:30:58.957Z,5.60
2018-03-26T16:31:58.566Z,5.80
2018-03-26T16:33:52.338Z,5.90
2018-03-26T16:34:51.915Z,5.40
2018-03-26T16:36:45.752Z,6.20
2018-03-26T16:37:45.330Z,6.70
2018-03-26T16:39:53.713Z,5.70
2018-03-26T16:40:53.347Z,6.30
2018-03-26T16:42:47.367Z,6.40
2018-03-26T16:43:46.738Z,6.50
2018-03-26T16:45:40.621Z,5.80
2018-03-26T16:46:40.516Z,6.20
2018-03-26T16:48:33.085Z,5.70
2018-03-26T16:49:34.001Z,5.90
2018-03-26T16:51:26.370Z,6.30
2018-03-26T16:52:26.436Z,5.80
2018-03-26T16:54:19.680Z,5.90
2018-03-26T16:55:19.676Z,6.00
2018-03-26T16:57:14.008Z,6.60
2018-03-26T16:58:13.591Z,6.60
2018-03-26T17:00:09.505Z,6.20
2018-03-26T17:02:27.180Z,5.80
2018-03-26T17:03:26.925Z,6.00
2018-03-26T17:05:20.190Z,5.90
2018-03-26T17:06:20.194Z,6.00
2018-03-26T17:08:13.637Z,5.50
2018-03-26T17:09:13.524Z,5.60
2018-03-26T17:11:06.441Z,6.10
2018-03-26T17:12:06.406Z,6.50
2018-03-26T17:13:59.830Z,5.00
2018-03-26T17:14:59.765Z,4.80
2018-03-26T17:16:52.797Z,5.60
2018-03-26T17:17:53.086Z,5.80
2018-03-26T17:19:49.872Z,5.10
2018-03-26T17:20:49.453Z,6.10
2018-03-26T17:22:42.503Z,5.40
2018-03-26T17:23:41.884Z,5.10
2018-03-26T17:25:36.878Z,5.10
2018-03-26T17:26:36.266Z,4.40
2018-03-26T17:28:32.007Z,4.70
2018-03-26T17:29:30.056Z,4.70
2018-03-26T17:31:23.176Z,4.20
2018-03-26T17:32:23.077Z,4.70
2018-03-26T17:34:16.461Z,4.70
2018-03-26T17:35:16.452Z,5.20
2018-03-26T17:37:11.246Z,4.40
2018-03-26T17:38:10.791Z,4.60
2018-03-26T17:40:07.116Z,5.40
2018-03-26T17:41:04.616Z,5.00
2018-03-26T17:42:57.970Z,5.40
2018-03-26T17:43:57.950Z,4.80
2018-03-26T17:45:51.354Z,4.60
2018-03-26T17:46:52.364Z,4.60
2018-03-26T17:48:45.201Z,5.30
2018-03-26T17:49:44.605Z,6.20
2018-03-26T17:51:38.206Z,13.20
2018-03-26T17:52:38.082Z,12.10
2018-03-26T17:54:31.460Z,12.00
2018-03-26T17:55:31.105Z,12.00
2018-03-26T17:57:24.866Z,9.30
2018-03-26T17:58:24.452Z,9.10
2018-03-26T18:00:18.134Z,16.50
2018-03-26T18:01:18.202Z,15.10
2018-03-26T18:03:12.322Z,13.10
2018-03-26T18:04:11.175Z,13.00
2018-03-26T18:06:04.960Z,12.40
2018-03-26T18:07:03.945Z,9.00
2018-03-26T18:08:57.653Z,12.40
2018-03-26T18:09:57.895Z,15.40
2018-03-26T18:11:51.676Z,14.40
2018-03-26T18:12:50.670Z,14.90
2018-03-26T18:14:44.362Z,13.10
2018-03-26T18:15:44.266Z,12.00
2018-03-26T18:17:37.805Z,10.70
2018-03-26T18:18:37.931Z,11.30
2018-03-26T18:20:31.069Z,12.00
2018-03-26T18:21:30.772Z,12.20
2018-03-26T18:23:24.498Z,15.20
2018-03-26T18:24:24.870Z,18.50
2018-03-26T18:26:18.383Z,11.10
2018-03-26T18:27:18.161Z,12.20
2018-03-26T18:29:11.248Z,10.20
2018-03-26T18:30:11.109Z,10.20
2018-03-26T18:32:05.499Z,11.50
2018-03-26T18:33:06.415Z,10.50
2018-03-26T18:34:57.894Z,10.00
2018-03-26T18:35:56.736Z,10.60
2018-03-26T18:37:52.008Z,8.50
2018-03-26T18:38:51.665Z,6.80
2018-03-26T18:40:44.523Z,6.60
2018-03-26T18:41:43.801Z,7.00
2018-03-26T18:43:37.138Z,5.90
2018-03-26T18:44:36.685Z,5.80
2018-03-26T18:46:30.328Z,6.30
2018-03-26T18:47:30.041Z,6.40
2018-03-26T18:49:22.934Z,5.80
2018-03-26T18:50:22.895Z,5.60
2018-03-26T18:52:16.798Z,5.60
2018-03-26T18:53:16.594Z,5.10
2018-03-26T18:55:09.174Z,4.90
2018-03-26T18:56:11.011Z,4.80
2018-03-26T18:58:02.868Z,5.20
2018-03-26T18:59:02.517Z,5.20